ftp/pub/mcmurdo/arrivalheights/2008/May/080507.txt

Download

5/7/08
Time         Wind Dir   Wind Spd  Wind Gust     Hum In   Humidity    Temp In       Temp  Raw Barom   Tot Rain
                    °        kts        kts          %          %         °C         °C         mb         mm
0:00               40         15         19         23        100       20.7      -14.3     988.83       0.00
0:20               39         12         12         27        100       20.7      -13.8     988.90       0.00
0:40               46         13         16         29        100       20.8      -13.9     989.24       0.00
1:00               94         20         21         31        100       20.9      -12.8     988.80       0.00
1:20               55         13         20         31        100       20.9      -13.9     988.33       0.00
1:40              111         17         27         30        100       20.9      -15.0     988.63       0.00
2:00              120          6         11         31        100       21.1      -14.2     989.00       0.00
2:20               66         15         15         25        100       19.9      -14.3     988.90       0.00
2:40              159         15         17         31        100       19.8      -14.1     988.97       0.00
3:00              169         19         24         32        100       20.0      -14.3     988.93       0.00
3:20              168         17         23         26        100       20.3      -14.3     988.80       0.00
3:40              167         16         21         22        100       20.6      -15.0     989.07       0.00
4:00              187         30         30         27        100       20.6      -14.7     989.07       0.00
4:20              155         23         24         29        100       20.6      -14.9     989.17       0.00
4:40              138         25         30         31        100       20.6      -14.1     989.21       0.00
5:00              100         16         24         32        100       20.7      -14.4     988.90       0.00
5:20              147         15         23         27        100       19.8      -15.0     989.17       0.00
5:40              168         23         28         31        100       19.7      -15.4     988.60       0.00
6:00              171         28         28         32        100       19.8      -15.1     988.53       0.00
6:20              137         17         18         29        100       20.1      -15.1     988.93       0.00
6:40              184         28         31         24        100       20.4      -14.9     988.90       0.00
7:00              160         28         29         26        100       20.4      -15.6     989.07       0.00
7:20              137         18         22         28        100       20.3      -15.7     989.44       0.00
7:40              125         23         26         31        100       20.4      -16.4     989.21       0.00
8:00              126         29         30         33        100       20.6      -16.2     989.04       0.00
8:20              119         20         23         22        100       20.4      -16.5     989.34       0.00
8:40              117         22         24         27        100       19.6      -16.7     989.31       0.00
9:00              123         24         27         31        100       19.7      -16.9     988.93       0.00
9:20              145         30         34         33        100       19.9      -16.7     988.80       0.00
9:40              124         25         30         26        100       20.4      -17.0     988.80       0.00
10:00             111         20         22         22        100       19.9      -16.9     988.97       0.00
10:20             114         22         23         28        100       19.4      -16.2     988.83       0.00
10:40              78          9         17         30        100       19.6      -17.3     989.14       0.00
11:00              89         14         17         31        100       19.7      -17.7     988.97       0.00
11:20              70         10         14         31        100       19.9      -17.7     988.87       0.00
11:40              58         17         17         32        100       20.0      -17.9     988.63       0.00
12:00              61         13         17         31        100       20.0      -19.6     988.63       0.00
12:20              79         17         19         31        100       20.1      -19.2     988.26       0.00
12:40              57         12         14         31        100       20.1      -20.3     988.19       0.00
13:00              56         13         19         30        100       20.0      -18.6     988.05       0.00
13:20              57         11         17         30        100       20.0      -17.2     987.88       0.00
13:40              53         10         16         30        100       19.9      -17.9     987.85       0.00
14:00              52         10         15         31        100       19.9      -16.8     987.95       0.00
14:20              51         15         17         31        100       19.9      -16.5     987.78       0.00
14:40              50          9         14         32        100       19.9      -16.6     987.99       0.00
15:00              34         10         15         27        100       20.1      -17.5     988.05       0.00
15:20              29         18         18         22        100       20.3      -19.2     987.78       0.00
15:40              40         17         23         26        100       20.2      -19.8     987.61       0.00
16:00              43         19         22         28        100       20.1      -20.0     987.44       0.00
16:20              40         18         21         29        100       19.9      -20.2     987.44       0.00
16:40              36         19         20         30        100       19.8      -20.7     987.41       0.00
17:00              38         18         23         30        100       19.8      -20.8     987.17       0.00
17:20              40         17         23         30        100       19.6      -21.3     986.97       0.00
17:40              40         18         25         31        100       19.6      -21.4     986.56       0.00
18:00              39         27         30         30        100       19.4      -21.1     986.19       0.00
18:20              42         25         26         30        100       19.2      -20.3     986.16       0.00
18:40              43         21         24         30        100       19.1      -20.0     986.16       0.00
19:00              34         17         20         31        100       18.9      -20.7     986.06       0.00
19:20              25         16         18         26        100       19.2      -21.1     986.16       0.00
19:40              20         19         19         21        100       19.1      -20.7     986.26       0.00
20:00              34         22         22         26        100       18.9      -20.4     985.95       0.00
20:20              38         15         17         29        100       18.9      -19.9     985.79       0.00
20:40              48         18         23         30        100       18.9      -18.8     985.28       0.00
21:00              36         17         21         31        100       18.8      -18.4     985.31       0.00
21:20              41         16         17         25        100       19.1      -18.3     985.07       0.00
21:40              37         17         17         21        100       19.2      -18.0     984.97       0.00
22:00              36         15         16         26        100       19.2      -18.7     984.70       0.00
22:20              22          9         11         29        100       19.2      -19.1     984.70       0.00
22:40              16         10         10         30        100       19.2      -18.9     984.63       0.00
23:00             340          9         10         28        100       19.3      -15.2     984.46       0.00
23:20             334          4          5         24        100       19.6      -15.6     984.30       0.00
23:40               8          7          9         22        100       19.8      -17.0     984.13       0.00